Decoded Metar for KROA (ROANOKE in VA, USA) (IATA:ROA) | Meteo·Mobile Aviation Weather
aviador You're here:

KROA Decoded Metar

ROANOKE in VA, USA
Report Time2019-01-16 17:54:00
UTC Time2019-01-16 18:22:42
Flight Rules vfr VFR
Wind290° at 16 Gusting to 21 kt
W.Decomp.*RWY 34: 11.9 kt HW 10.7 kt LCW
RWY 24: 8.5 kt HW 13.6 kt RCW
W.Rank290° ranks 1
Current wind is above 290° avg. (8.9)
Visibility9999 m
Phenomena:N/A
Clouds:Broken 033 Hf
Expected CloudBase > 3,200 ft AGL from Temp-Dew spread
Ceiling3,300 ft
Temp06°C (ISA -7)
Dew Point-2°C (57% RH)
AAT-2.0°C
QNH1022 hPa
Density Alt161 ft
Elevation1,188 ft
Report Wrong Elevation
Raw Report
KROA 161754Z 29016G21KT 10SM BKN033 06/M02 A3018 RMK AO2 SLP227
T00611017 10072 21022 58005=

Extra information for KROA:More info

Metar Taf Metar & Taf Last 4 Metars F.Rules Stats Wind Profile Meteogram Temp Stats Airport Information Weather charts Add Link Nearby VenuesMetar ALERT Operation Metar Decoded Social comments

AIRNAV info for KROA